Terminal Aerodrome Forecast
Issued by NWS

Current Version | Previous Version | Text Only | Print | Product List | Glossary Off
Versions: 1 2 3 4 5 6 7 8 9 10 11 12 13 14 15 16 17 18 19 20 21 22 23 24 25 26 27 28 29 30 31 32

723
FTUS41 KRNK 201350 AAA
TAFLWB
TAF AMD
KLWB 201350Z 2014/2112 04003KT P6SM SKC WS020/23035KT
     FM201800 19006KT P6SM SCT025
     FM210100 17005KT P6SM FEW250
     FM210600 VRB03KT 2SM BR SCT006=

USA.gov is the U.S. government's official web portal to all federal, state and local government web resources and services.